createdAt,value
2022-10-19T00:01:25.572Z,11.89
2022-10-19T00:03:55.563Z,11.88
2022-10-19T00:06:26.577Z,11.87
2022-10-19T00:08:56.769Z,11.86
2022-10-19T00:11:26.567Z,11.86
2022-10-19T00:13:56.630Z,11.82
2022-10-19T00:16:28.024Z,11.77
2022-10-19T00:18:58.819Z,11.70
2022-10-19T00:21:30.205Z,11.66
2022-10-19T00:23:59.036Z,11.61
2022-10-19T00:26:28.152Z,11.55
2022-10-19T00:28:58.393Z,11.50
2022-10-19T00:31:27.879Z,11.44
2022-10-19T00:33:58.407Z,11.37
2022-10-19T00:36:29.481Z,11.32
2022-10-19T00:38:59.391Z,11.25
2022-10-19T00:41:30.584Z,11.20
2022-10-19T00:44:01.376Z,11.14
2022-10-19T00:46:32.915Z,11.08
2022-10-19T00:49:07.079Z,11.05
2022-10-19T00:51:43.757Z,11.00
2022-10-19T00:54:12.984Z,10.94
2022-10-19T00:56:44.746Z,10.90
2022-10-19T00:59:16.669Z,10.86
2022-10-19T01:01:46.824Z,10.81
2022-10-19T01:04:16.373Z,10.78
2022-10-19T01:06:45.451Z,10.74
2022-10-19T01:09:14.079Z,10.69
2022-10-19T01:11:53.279Z,10.63
2022-10-19T01:14:37.971Z,10.58
2022-10-19T01:17:20.248Z,10.55
2022-10-19T01:20:15.864Z,10.52
2022-10-19T01:23:00.012Z,10.52
2022-10-19T01:25:40.760Z,10.49
2022-10-19T01:28:27.721Z,10.49
2022-10-19T01:31:02.022Z,10.49
2022-10-19T01:33:46.124Z,10.50
2022-10-19T01:36:26.069Z,10.50
2022-10-19T01:39:01.301Z,10.50
2022-10-19T01:41:37.168Z,10.52
2022-10-19T01:44:14.953Z,10.53
2022-10-19T01:46:47.212Z,10.54
2022-10-19T01:49:24.387Z,10.55
2022-10-19T01:52:00.160Z,10.56
2022-10-19T01:54:33.975Z,10.55
2022-10-19T01:57:05.594Z,10.55
2022-10-19T01:59:36.423Z,10.55
2022-10-19T02:02:08.937Z,10.55
2022-10-19T02:04:39.420Z,10.54
2022-10-19T02:07:09.544Z,10.54
2022-10-19T02:09:38.423Z,10.54
2022-10-19T02:12:10.971Z,10.54
2022-10-19T02:14:43.760Z,10.53
2022-10-19T02:17:16.053Z,10.53
2022-10-19T02:19:44.814Z,10.52
2022-10-19T02:22:13.723Z,10.50
2022-10-19T02:24:42.682Z,10.50
2022-10-19T02:27:12.447Z,10.48
2022-10-19T02:29:41.673Z,10.48
2022-10-19T02:32:11.152Z,10.46
2022-10-19T02:34:40.968Z,10.45
2022-10-19T02:37:10.202Z,10.43
2022-10-19T02:39:39.875Z,10.41
2022-10-19T02:42:14.141Z,10.41
2022-10-19T02:44:47.427Z,10.39
2022-10-19T02:47:21.566Z,10.38
2022-10-19T02:49:51.687Z,10.37
2022-10-19T02:52:21.073Z,10.36
2022-10-19T02:54:49.689Z,10.34
2022-10-19T02:57:21.190Z,10.34
2022-10-19T02:59:50.771Z,10.33
2022-10-19T03:02:23.657Z,10.32
2022-10-19T03:04:52.215Z,10.31
2022-10-19T03:07:22.554Z,10.28
2022-10-19T03:09:51.604Z,10.25
2022-10-19T03:12:21.262Z,10.21
2022-10-19T03:14:49.764Z,10.18
2022-10-19T03:17:18.381Z,10.13
2022-10-19T03:19:48.449Z,10.11
2022-10-19T03:22:17.582Z,10.08
2022-10-19T03:24:46.258Z,10.03
2022-10-19T03:27:16.091Z,10.02
2022-10-19T03:29:44.931Z,9.98
2022-10-19T03:32:13.579Z,9.95
2022-10-19T03:34:42.269Z,9.93
2022-10-19T03:37:13.185Z,9.91
2022-10-19T03:39:42.738Z,9.88
2022-10-19T03:42:11.503Z,9.86
2022-10-19T03:44:40.098Z,9.85
2022-10-19T03:47:10.775Z,9.85
2022-10-19T03:49:40.382Z,9.84
2022-10-19T03:52:09.721Z,9.83
2022-10-19T03:54:38.695Z,9.84
2022-10-19T03:57:07.223Z,9.84
2022-10-19T03:59:38.306Z,9.83
2022-10-19T04:02:06.977Z,9.84
2022-10-19T04:04:35.786Z,9.84
2022-10-19T04:07:05.267Z,9.84
2022-10-19T04:09:33.906Z,9.84
2022-10-19T04:12:04.113Z,9.85
2022-10-19T04:14:52.654Z,9.85
2022-10-19T04:17:23.882Z,9.86
2022-10-19T04:19:52.410Z,9.87
2022-10-19T04:22:22.421Z,9.87
2022-10-19T04:24:51.074Z,9.88
2022-10-19T04:27:20.695Z,9.88
2022-10-19T04:29:49.521Z,9.89
2022-10-19T04:32:21.397Z,9.90
2022-10-19T04:34:49.952Z,9.89
2022-10-19T04:37:18.546Z,9.91
2022-10-19T04:39:47.399Z,9.91
2022-10-19T04:42:17.540Z,9.91
2022-10-19T04:44:46.032Z,9.89
2022-10-19T04:47:15.118Z,9.90
2022-10-19T04:49:50.872Z,9.89
2022-10-19T04:52:21.807Z,9.91
2022-10-19T04:54:50.391Z,9.91
2022-10-19T04:57:18.890Z,9.92
2022-10-19T04:59:48.996Z,9.92
2022-10-19T05:02:17.560Z,9.91
2022-10-19T05:04:48.580Z,9.91
2022-10-19T05:07:17.189Z,9.92
2022-10-19T05:09:45.800Z,9.92
2022-10-19T05:12:14.977Z,9.90
2022-10-19T05:14:43.736Z,9.91
2022-10-19T05:17:12.604Z,9.91
2022-10-19T05:19:41.244Z,9.90
2022-10-19T05:22:10.043Z,9.89
2022-10-19T05:24:38.640Z,9.90
2022-10-19T05:27:07.210Z,9.90
2022-10-19T05:29:36.348Z,9.90
2022-10-19T05:32:05.647Z,9.91
2022-10-19T05:34:34.369Z,9.89
2022-10-19T05:37:02.874Z,9.89
2022-10-19T05:39:33.598Z,9.91
2022-10-19T05:42:02.172Z,9.91
2022-10-19T05:44:30.968Z,9.93
2022-10-19T05:47:00.154Z,9.93
2022-10-19T05:49:28.810Z,9.96
2022-10-19T05:51:57.467Z,9.96
2022-10-19T05:54:27.829Z,9.97
2022-10-19T05:56:57.609Z,9.98
2022-10-19T05:59:26.175Z,10.00
2022-10-19T06:01:54.895Z,10.02
2022-10-19T06:04:24.066Z,10.02
2022-10-19T06:06:52.527Z,10.05
2022-10-19T06:09:23.807Z,10.08
2022-10-19T06:11:52.364Z,10.09
2022-10-19T06:14:23.546Z,10.10
2022-10-19T06:16:52.111Z,10.13
2022-10-19T06:19:20.676Z,10.20
2022-10-19T06:21:50.203Z,10.23
2022-10-19T06:24:18.695Z,10.23
2022-10-19T06:26:47.316Z,10.24
2022-10-19T06:29:18.361Z,10.27
2022-10-19T06:31:47.815Z,10.26
2022-10-19T06:34:16.509Z,10.28
2022-10-19T06:36:45.148Z,10.30
2022-10-19T06:39:13.761Z,10.36
2022-10-19T06:41:42.258Z,10.38
2022-10-19T06:44:20.169Z,10.39
2022-10-19T06:46:49.169Z,10.37
2022-10-19T06:49:17.827Z,10.36
2022-10-19T06:51:46.481Z,10.43
2022-10-19T06:54:15.093Z,10.48
2022-10-19T06:56:46.956Z,10.56
2022-10-19T06:59:17.209Z,10.58
2022-10-19T07:01:51.630Z,10.62
2022-10-19T07:04:23.068Z,10.69
2022-10-19T07:06:52.428Z,10.75
2022-10-19T07:09:25.013Z,10.85
2022-10-19T07:11:53.804Z,11.05
2022-10-19T07:14:24.237Z,11.26
2022-10-19T07:16:52.750Z,11.31
2022-10-19T07:19:29.740Z,11.35
2022-10-19T07:21:58.725Z,11.48
2022-10-19T07:24:27.770Z,11.54
2022-10-19T07:26:56.671Z,11.70
2022-10-19T07:29:26.409Z,11.72
2022-10-19T07:31:57.247Z,11.63
2022-10-19T07:34:28.939Z,11.72
2022-10-19T07:36:57.801Z,11.98
2022-10-19T07:39:27.018Z,13.15
2022-10-19T07:41:55.701Z,12.97
2022-10-19T07:44:25.562Z,12.92
2022-10-19T07:46:54.044Z,12.91
2022-10-19T07:49:24.155Z,12.71
2022-10-19T07:51:54.590Z,12.67
2022-10-19T07:54:27.223Z,12.56
2022-10-19T07:56:55.845Z,12.58
2022-10-19T07:59:24.739Z,12.58
2022-10-19T08:01:54.240Z,12.71
2022-10-19T08:07:14.608Z,12.67
2022-10-19T08:09:58.815Z,12.62
2022-10-19T08:12:26.717Z,12.56
2022-10-19T08:15:01.171Z,12.38
2022-10-19T08:17:30.618Z,12.14
2022-10-19T08:19:59.094Z,11.97
2022-10-19T08:22:27.701Z,11.85
2022-10-19T08:24:56.326Z,11.81
2022-10-19T08:27:28.655Z,11.79
2022-10-19T08:29:59.459Z,11.77
2022-10-19T08:32:31.922Z,11.72
2022-10-19T08:35:01.025Z,11.69
2022-10-19T08:37:45.789Z,11.65
2022-10-19T08:40:21.159Z,11.65
2022-10-19T08:42:58.056Z,11.68
2022-10-19T08:45:43.376Z,11.69
2022-10-19T08:48:32.695Z,11.69
2022-10-19T08:51:02.605Z,11.68
2022-10-19T08:53:54.440Z,11.65
2022-10-19T08:56:51.714Z,11.62
2022-10-19T08:59:36.342Z,11.63
2022-10-19T09:02:13.792Z,11.74
2022-10-19T09:04:47.763Z,11.77
2022-10-19T09:07:29.426Z,11.76
2022-10-19T09:10:01.431Z,11.78
2022-10-19T09:12:43.943Z,11.90
2022-10-19T09:15:17.753Z,11.97
2022-10-19T09:17:49.323Z,12.01
2022-10-19T09:20:25.136Z,12.03
2022-10-19T09:23:05.918Z,12.10
2022-10-19T09:25:39.191Z,12.12
2022-10-19T09:28:18.761Z,12.11
2022-10-19T09:30:51.012Z,12.06
2022-10-19T09:33:28.405Z,12.00
2022-10-19T09:35:57.759Z,11.94
2022-10-19T09:38:28.737Z,11.81
2022-10-19T09:40:58.681Z,11.68
2022-10-19T09:43:27.852Z,11.55
2022-10-19T09:46:09.525Z,11.47
2022-10-19T09:48:49.325Z,11.41
2022-10-19T09:51:18.849Z,11.32
2022-10-19T09:53:51.529Z,11.32
2022-10-19T09:56:23.519Z,11.40
2022-10-19T09:58:54.257Z,11.46
2022-10-19T10:01:44.066Z,11.51
2022-10-19T10:04:17.525Z,11.62
2022-10-19T10:06:49.461Z,11.72
2022-10-19T10:09:22.026Z,11.65
2022-10-19T10:14:33.148Z,11.44
2022-10-19T10:17:06.684Z,11.26
2022-10-19T10:19:35.537Z,11.01
2022-10-19T10:22:04.666Z,10.80
2022-10-19T10:24:35.905Z,10.58
2022-10-19T10:27:06.211Z,10.40
2022-10-19T10:29:36.871Z,10.26
2022-10-19T10:32:08.786Z,10.19
2022-10-19T10:34:50.549Z,10.15
2022-10-19T10:37:24.431Z,10.09
2022-10-19T10:40:01.871Z,10.10
2022-10-19T10:42:40.755Z,10.10
2022-10-19T10:45:19.103Z,10.10
2022-10-19T10:47:52.526Z,10.12
2022-10-19T10:50:24.000Z,10.20
2022-10-19T10:53:00.951Z,10.26
2022-10-19T10:55:32.035Z,10.23
2022-10-19T10:58:11.842Z,10.18
2022-10-19T11:00:42.991Z,10.14
2022-10-19T11:03:15.967Z,10.15
2022-10-19T11:05:48.346Z,10.25
2022-10-19T11:08:24.652Z,10.42
2022-10-19T11:10:59.574Z,10.74
2022-10-19T11:13:32.043Z,10.98
2022-10-19T11:16:06.707Z,11.09
2022-10-19T11:18:40.818Z,11.09
2022-10-19T11:21:18.060Z,11.25
2022-10-19T11:23:59.772Z,11.56
2022-10-19T11:26:44.583Z,11.80
2022-10-19T11:29:32.328Z,12.04
2022-10-19T11:32:02.391Z,12.30
2022-10-19T11:34:55.627Z,12.44
2022-10-19T11:37:32.870Z,12.51
2022-10-19T11:40:15.436Z,12.46
2022-10-19T11:43:04.466Z,12.24
2022-10-19T11:45:48.256Z,12.02
2022-10-19T11:48:55.003Z,11.88
2022-10-19T11:51:32.981Z,11.85
2022-10-19T11:54:26.048Z,11.87
2022-10-19T11:57:05.563Z,11.94
2022-10-19T12:00:00.245Z,12.04
2022-10-19T12:03:03.895Z,12.09
2022-10-19T12:05:46.244Z,12.11
2022-10-19T12:08:28.505Z,12.23
2022-10-19T12:11:08.993Z,12.22
2022-10-19T12:13:51.487Z,12.18
2022-10-19T12:16:25.183Z,12.18
2022-10-19T12:18:59.941Z,12.16
2022-10-19T12:21:36.096Z,12.03
2022-10-19T12:24:11.515Z,11.91
2022-10-19T12:26:50.453Z,11.81
2022-10-19T12:29:23.738Z,11.73
2022-10-19T12:31:54.109Z,11.70
2022-10-19T12:34:34.119Z,11.69
2022-10-19T12:37:17.140Z,11.71
2022-10-19T12:39:53.613Z,11.73
2022-10-19T12:42:27.870Z,11.76
2022-10-19T12:45:17.914Z,11.73
2022-10-19T12:48:20.019Z,11.67
2022-10-19T12:51:14.540Z,11.65
2022-10-19T12:53:50.188Z,11.68
2022-10-19T12:56:23.773Z,11.69
2022-10-19T12:59:00.854Z,11.69
2022-10-19T13:01:44.210Z,11.71
2022-10-19T13:04:21.064Z,11.72
2022-10-19T13:06:59.718Z,11.74
2022-10-19T13:09:35.254Z,11.72
2022-10-19T13:12:30.345Z,11.72
2022-10-19T13:15:00.574Z,11.75
2022-10-19T13:17:45.086Z,11.80
2022-10-19T13:20:51.759Z,11.87
2022-10-19T13:23:41.504Z,11.92
2022-10-19T13:26:41.711Z,11.95
2022-10-19T13:29:26.408Z,11.96
2022-10-19T13:31:55.378Z,12.01
2022-10-19T13:34:29.788Z,12.02
2022-10-19T13:37:04.031Z,12.02
2022-10-19T13:39:39.332Z,12.05
2022-10-19T13:42:25.753Z,12.11
2022-10-19T13:45:00.595Z,12.17
2022-10-19T13:47:41.320Z,12.16
2022-10-19T13:50:39.014Z,12.09
2022-10-19T13:53:34.077Z,11.94
2022-10-19T13:56:20.650Z,11.77
2022-10-19T14:02:33.531Z,11.69
2022-10-19T14:05:23.105Z,11.57
2022-10-19T14:08:03.701Z,11.44
2022-10-19T14:13:29.567Z,11.14
2022-10-19T14:16:02.383Z,11.09
2022-10-19T14:18:33.695Z,11.08
2022-10-19T14:21:06.235Z,11.06
2022-10-19T14:23:42.371Z,11.06
2022-10-19T14:26:24.737Z,11.04
2022-10-19T14:28:56.477Z,10.97
2022-10-19T14:31:51.738Z,10.92
2022-10-19T14:34:20.649Z,10.92
2022-10-19T14:36:51.313Z,10.92
2022-10-19T14:39:30.768Z,10.90
2022-10-19T14:42:05.923Z,10.84
2022-10-19T14:44:39.951Z,10.75
2022-10-19T14:47:18.682Z,10.64
2022-10-19T14:49:48.186Z,10.55
2022-10-19T14:52:25.410Z,10.46
2022-10-19T14:54:58.742Z,10.39
2022-10-19T14:57:32.422Z,10.30
2022-10-19T15:00:04.359Z,10.18
2022-10-19T15:02:36.895Z,10.12
2022-10-19T15:05:19.767Z,10.07
2022-10-19T15:07:49.692Z,9.96
2022-10-19T15:10:24.222Z,9.88
2022-10-19T15:13:02.911Z,9.80
2022-10-19T15:15:33.774Z,9.70
2022-10-19T15:18:06.069Z,9.59
2022-10-19T15:20:49.088Z,9.48
2022-10-19T15:23:36.451Z,9.36
2022-10-19T15:26:18.707Z,9.26
2022-10-19T15:28:48.881Z,9.17
2022-10-19T15:31:20.564Z,9.07
2022-10-19T15:33:51.315Z,8.98
2022-10-19T15:36:23.816Z,8.91
2022-10-19T15:39:17.885Z,8.84
2022-10-19T15:41:53.431Z,8.73
2022-10-19T15:44:33.994Z,8.65
2022-10-19T15:47:24.697Z,8.59
2022-10-19T15:49:57.326Z,8.53
2022-10-19T15:52:27.272Z,8.46
2022-10-19T15:54:57.561Z,8.40
2022-10-19T15:57:28.990Z,8.33
2022-10-19T15:59:59.952Z,8.27
2022-10-19T16:02:28.938Z,8.21
2022-10-19T16:05:00.443Z,8.14
2022-10-19T16:07:32.525Z,8.10
2022-10-19T16:10:05.519Z,8.05
2022-10-19T16:12:34.626Z,8.01
2022-10-19T16:15:11.914Z,7.96
2022-10-19T16:18:05.964Z,7.90
2022-10-19T16:20:38.365Z,7.85
2022-10-19T16:23:07.922Z,7.82
2022-10-19T16:25:37.459Z,7.79
2022-10-19T16:28:18.759Z,7.74
2022-10-19T16:30:53.147Z,7.69
2022-10-19T16:33:22.183Z,7.66
2022-10-19T16:35:52.411Z,7.63
2022-10-19T16:38:21.091Z,7.59
2022-10-19T16:40:50.084Z,7.56
2022-10-19T16:43:18.665Z,7.53
2022-10-19T16:45:49.779Z,7.50
2022-10-19T16:48:23.057Z,7.47
2022-10-19T16:51:28.327Z,7.44
2022-10-19T16:53:58.568Z,7.39
2022-10-19T16:56:32.275Z,7.36
2022-10-19T16:59:06.824Z,7.31
2022-10-19T17:01:38.328Z,7.27
2022-10-19T17:04:08.670Z,7.23
2022-10-19T17:06:38.882Z,7.18
2022-10-19T17:09:40.891Z,7.14
2022-10-19T17:12:03.378Z,7.10
2022-10-19T17:14:33.841Z,7.06
2022-10-19T17:17:10.840Z,7.03
2022-10-19T17:19:40.824Z,6.99
2022-10-19T17:22:17.173Z,6.95
2022-10-19T17:24:46.898Z,6.92
2022-10-19T17:27:16.446Z,6.91
2022-10-19T17:29:45.689Z,6.89
2022-10-19T17:32:14.724Z,6.86
2022-10-19T17:34:43.483Z,6.84
2022-10-19T17:37:12.297Z,6.81
2022-10-19T17:39:42.274Z,6.77
2022-10-19T17:42:11.963Z,6.73
2022-10-19T17:44:41.142Z,6.69
2022-10-19T17:47:10.532Z,6.64
2022-10-19T17:49:40.356Z,6.59
2022-10-19T17:52:09.004Z,6.55
2022-10-19T17:54:48.809Z,6.50
2022-10-19T17:57:29.127Z,6.45
2022-10-19T18:00:03.886Z,6.42
2022-10-19T18:02:43.330Z,6.37
2022-10-19T18:05:12.292Z,6.33
2022-10-19T18:07:46.361Z,6.28
2022-10-19T18:10:18.064Z,6.24
2022-10-19T18:12:47.634Z,6.20
2022-10-19T18:15:18.269Z,6.14
2022-10-19T18:17:49.455Z,6.11
2022-10-19T18:20:19.066Z,6.06
2022-10-19T18:22:47.749Z,6.02
2022-10-19T18:25:25.832Z,5.98
2022-10-19T18:28:00.960Z,5.94
2022-10-19T18:30:30.264Z,5.91
2022-10-19T18:33:01.503Z,5.87
2022-10-19T18:35:30.399Z,5.85
2022-10-19T18:37:59.151Z,5.83
2022-10-19T18:40:27.772Z,5.79
2022-10-19T18:42:56.721Z,5.77
2022-10-19T18:45:30.927Z,5.74
2022-10-19T18:47:58.564Z,5.68
2022-10-19T18:50:33.925Z,5.65
2022-10-19T18:53:02.609Z,5.62
2022-10-19T18:55:31.112Z,5.59
2022-10-19T18:57:59.947Z,5.57
2022-10-19T19:00:28.866Z,5.54
2022-10-19T19:02:59.766Z,5.51
2022-10-19T19:05:28.776Z,5.49
2022-10-19T19:07:57.432Z,5.46
2022-10-19T19:10:30.039Z,5.43
2022-10-19T19:13:00.738Z,5.43
2022-10-19T19:15:32.558Z,5.40
2022-10-19T19:18:04.271Z,5.38
2022-10-19T19:20:39.610Z,5.36
2022-10-19T19:23:08.158Z,5.29
2022-10-19T19:25:40.112Z,5.25
2022-10-19T19:28:08.710Z,5.20
2022-10-19T19:30:42.343Z,5.15
2022-10-19T19:33:11.365Z,5.11
2022-10-19T19:35:43.894Z,5.06
2022-10-19T19:38:13.245Z,5.02
2022-10-19T19:40:42.920Z,4.98
2022-10-19T19:43:13.550Z,4.97
2022-10-19T19:45:43.198Z,4.93
2022-10-19T19:48:12.086Z,4.87
2022-10-19T19:50:47.328Z,4.84
2022-10-19T19:53:17.607Z,4.81
2022-10-19T19:55:49.606Z,4.78
2022-10-19T19:58:18.575Z,4.75
2022-10-19T20:00:47.517Z,4.72
2022-10-19T20:03:15.986Z,4.66
2022-10-19T20:05:44.637Z,4.61
2022-10-19T20:08:13.194Z,4.55
2022-10-19T20:10:43.274Z,4.51
2022-10-19T20:13:12.000Z,4.46
2022-10-19T20:15:40.662Z,4.43
2022-10-19T20:18:09.520Z,4.42
2022-10-19T20:20:39.735Z,4.37
2022-10-19T20:23:08.603Z,4.35
2022-10-19T20:25:40.170Z,4.31
2022-10-19T20:28:11.278Z,4.29
2022-10-19T20:30:40.039Z,4.26
2022-10-19T20:33:08.605Z,4.23
2022-10-19T20:35:37.731Z,4.18
2022-10-19T20:38:06.209Z,4.14
2022-10-19T20:40:37.332Z,4.08
2022-10-19T20:43:05.899Z,4.04
2022-10-19T20:45:34.372Z,3.97
2022-10-19T20:48:02.976Z,3.92
2022-10-19T20:50:31.709Z,3.86
2022-10-19T20:53:00.338Z,3.79
2022-10-19T20:55:28.795Z,3.76
2022-10-19T20:57:57.341Z,3.72
2022-10-19T21:00:27.348Z,3.65
2022-10-19T21:02:58.775Z,3.62
2022-10-19T21:05:32.896Z,3.57
2022-10-19T21:08:04.329Z,3.52
2022-10-19T21:10:33.150Z,3.50
2022-10-19T21:13:01.851Z,3.48
2022-10-19T21:15:30.295Z,3.45
2022-10-19T21:17:58.876Z,3.39
2022-10-19T21:20:28.173Z,3.38
2022-10-19T21:22:57.857Z,3.36
2022-10-19T21:25:29.770Z,3.34
2022-10-19T21:27:58.521Z,3.34
2022-10-19T21:30:27.792Z,3.32
2022-10-19T21:32:56.290Z,3.30
2022-10-19T21:35:27.619Z,3.29
2022-10-19T21:37:56.092Z,3.24
2022-10-19T21:40:25.406Z,3.24
2022-10-19T21:42:54.048Z,3.21
2022-10-19T21:45:30.275Z,3.18
2022-10-19T21:47:59.436Z,3.16
2022-10-19T21:50:29.919Z,3.13
2022-10-19T21:52:59.434Z,3.13
2022-10-19T21:55:29.073Z,3.11
2022-10-19T21:57:57.588Z,3.11
2022-10-19T22:00:27.330Z,3.08
2022-10-19T22:03:01.309Z,3.07
2022-10-19T22:05:30.316Z,3.05
2022-10-19T22:07:58.972Z,3.01
2022-10-19T22:10:27.536Z,2.99
2022-10-19T22:12:56.748Z,2.97
2022-10-19T22:15:27.806Z,2.97
2022-10-19T22:17:56.495Z,2.93
2022-10-19T22:20:26.656Z,2.90
2022-10-19T22:22:55.290Z,2.86
2022-10-19T22:25:25.467Z,2.82
2022-10-19T22:27:54.365Z,2.78
2022-10-19T22:30:22.979Z,2.73
2022-10-19T22:32:55.322Z,2.69
2022-10-19T22:35:25.686Z,2.62
2022-10-19T22:37:54.138Z,2.56
2022-10-19T22:40:24.620Z,2.52
2022-10-19T22:43:11.645Z,2.49
2022-10-19T22:45:40.528Z,2.43
2022-10-19T22:48:09.224Z,2.43
2022-10-19T22:50:38.129Z,2.43
2022-10-19T22:53:06.986Z,2.41
2022-10-19T22:55:35.953Z,2.42
2022-10-19T22:58:05.716Z,2.42
2022-10-19T23:00:34.607Z,2.41
2022-10-19T23:03:03.943Z,2.41
2022-10-19T23:05:32.708Z,2.39
2022-10-19T23:08:01.497Z,2.38
2022-10-19T23:10:32.190Z,2.35
2022-10-19T23:13:00.937Z,2.31
2022-10-19T23:15:29.807Z,2.29
2022-10-19T23:17:59.653Z,2.27
2022-10-19T23:20:29.190Z,2.24
2022-10-19T23:22:58.659Z,2.20
2022-10-19T23:25:27.559Z,2.18
2022-10-19T23:27:56.354Z,2.13
2022-10-19T23:30:26.701Z,2.12
2022-10-19T23:32:55.576Z,2.13
2022-10-19T23:35:26.063Z,2.11
2022-10-19T23:37:54.817Z,2.12
2022-10-19T23:40:24.654Z,2.09
2022-10-19T23:42:53.134Z,2.09
2022-10-19T23:45:21.601Z,2.08
2022-10-19T23:47:50.109Z,2.06
2022-10-19T23:50:18.666Z,2.03
2022-10-19T23:55:20.907Z,1.99
2022-10-19T23:57:49.361Z,1.99
